Time;durP1;ratioP1;P1;durP2;ratioP2;P2;SDS_P1;SDS_P2;PMS_P1;PMS_P2;Temp;Humidity;BMP_temperature;BMP_pressure;BME280_temperature;BME280_humidity;BME280_pressure;Samples;Min_cycle;Max_cycle;Signal;HPM_P1;HPM_P2
2021/05/24 00:01:27;;;;;;;7.82;7.15;;;10.40;1.00;;;;;;4994333;28;20229;-77
2021/05/24 00:03:54;;;;;;;7.53;6.83;;;10.50;1.00;;;;;;4994978;28;20227;-77
2021/05/24 00:06:20;;;;;;;8.20;7.60;;;10.50;1.00;;;;;;4991158;28;20499;-76
2021/05/24 00:08:46;;;;;;;7.68;7.07;;;10.50;1.00;;;;;;4997653;28;20230;-78
2021/05/24 00:11:12;;;;;;;7.68;7.07;;;10.50;1.00;;;;;;4983429;28;20236;-76
2021/05/24 00:13:45;;;;;;;7.05;6.55;;;10.50;1.00;;;;;;4997976;28;21504;-77
2021/05/24 00:16:12;;;;;;;7.70;7.10;;;10.50;1.00;;;;;;4998394;28;20294;-77
2021/05/24 00:18:38;;;;;;;8.35;6.97;;;10.50;1.00;;;;;;4997723;28;20227;-76
2021/05/24 00:21:05;;;;;;;6.90;6.20;;;10.40;1.00;;;;;;5002198;28;20230;-78
2021/05/24 00:23:31;;;;;;;15.38;13.82;;;10.30;1.00;;;;;;4987365;28;20440;-76
2021/05/24 00:25:58;;;;;;;8.13;7.43;;;10.30;1.00;;;;;;4998503;28;20228;-76
2021/05/24 00:28:24;;;;;;;7.63;6.95;;;10.20;1.00;;;;;;4995384;28;20225;-77
2021/05/24 00:30:51;;;;;;;8.63;7.90;;;10.20;1.00;;;;;;5000254;28;20245;-78
2021/05/24 00:33:18;;;;;;;7.35;6.75;;;10.10;1.00;;;;;;4998430;28;20428;-77
2021/05/24 00:35:44;;;;;;;7.65;7.05;;;10.10;1.00;;;;;;4997356;28;20236;-77
2021/05/24 00:38:11;;;;;;;8.57;7.70;;;10.10;1.00;;;;;;4999065;28;20228;-77
2021/05/24 00:40:39;;;;;;;7.30;6.70;;;10.10;1.00;;;;;;4978349;28;20262;-78
2021/05/24 00:43:07;;;;;;;7.60;6.88;;;10.00;1.00;;;;;;4998475;28;20223;-77
2021/05/24 00:45:33;;;;;;;7.90;7.20;;;10.00;1.00;;;;;;4981952;28;20231;-76
2021/05/24 00:48:00;;;;;;;8.35;7.65;;;10.00;1.00;;;;;;4996567;28;20227;-76
2021/05/24 00:50:26;;;;;;;7.93;7.22;;;10.00;1.00;;;;;;5002829;28;20224;-77
2021/05/24 00:52:52;;;;;;;11.00;8.75;;;10.00;1.00;;;;;;4997270;28;20226;-78
2021/05/24 00:55:19;;;;;;;7.95;7.35;;;9.90;1.00;;;;;;4998221;28;20231;-77
2021/05/24 00:57:46;;;;;;;7.82;7.15;;;9.90;1.00;;;;;;5000940;28;20233;-76
2021/05/24 01:00:15;;;;;;;9.93;7.88;;;9.90;1.00;;;;;;4981217;28;20288;-76
2021/05/24 01:02:41;;;;;;;8.57;7.75;;;9.90;1.00;;;;;;5003261;28;20740;-76
2021/05/24 01:05:09;;;;;;;7.95;7.25;;;9.80;1.00;;;;;;4995832;28;20225;-76
2021/05/24 01:07:35;;;;;;;7.63;6.95;;;9.80;1.00;;;;;;5001533;28;20233;-76
2021/05/24 01:10:01;;;;;;;6.95;6.45;;;9.80;1.00;;;;;;4980272;28;21113;-77
2021/05/24 01:12:30;;;;;;;7.57;6.90;;;9.80;1.00;;;;;;4996108;28;20213;-76
2021/05/24 01:14:56;;;;;;;7.75;7.05;;;9.80;1.00;;;;;;4997406;28;20225;-78
2021/05/24 01:17:22;;;;;;;7.40;6.80;;;9.70;1.00;;;;;;4999817;28;20361;-77
2021/05/24 01:19:49;;;;;;;7.47;6.80;;;9.80;1.00;;;;;;4999467;28;20740;-76
2021/05/24 01:22:19;;;;;;;7.50;6.90;;;9.70;1.00;;;;;;4983562;28;20280;-75
2021/05/24 01:24:46;;;;;;;7.18;6.50;;;9.70;1.00;;;;;;4996056;28;20463;-76
2021/05/24 01:27:13;;;;;;;7.25;6.55;;;9.70;1.00;;;;;;4998181;28;22413;-76
2021/05/24 01:29:39;;;;;;;7.25;6.65;;;9.70;1.00;;;;;;5005473;28;20259;-77
2021/05/24 01:32:07;;;;;;;7.68;7.07;;;9.70;1.00;;;;;;4998986;28;20215;-76
2021/05/24 01:34:34;;;;;;;8.13;7.43;;;9.70;1.00;;;;;;4999565;28;20249;-75
2021/05/24 01:37:01;;;;;;;7.70;6.90;;;9.60;1.00;;;;;;4998517;28;20260;-78
2021/05/24 01:39:28;;;;;;;7.40;6.70;;;9.60;1.00;;;;;;4998564;28;20240;-77
2021/05/24 01:41:54;;;;;;;7.13;6.60;;;9.60;1.00;;;;;;4986050;28;20236;-77
2021/05/24 01:44:29;;;;;;;8.77;7.97;;;9.60;1.00;;;;;;5004357;28;20256;-79
2021/05/24 01:46:55;;;;;;;8.35;7.60;;;9.60;1.00;;;;;;5002262;28;20228;-79
2021/05/24 01:49:21;;;;;;;8.30;7.60;;;9.50;1.00;;;;;;5002653;28;20234;-79
2021/05/24 01:51:48;;;;;;;7.90;7.25;;;9.60;1.00;;;;;;5003630;28;20238;-76
2021/05/24 01:54:14;;;;;;;8.25;7.53;;;9.60;1.00;;;;;;4985603;28;20230;-76
2021/05/24 01:56:42;;;;;;;7.95;7.32;;;9.60;1.00;;;;;;4998785;28;20287;-76
2021/05/24 01:59:08;;;;;;;7.32;6.82;;;9.60;1.00;;;;;;5000301;28;20277;-78
2021/05/24 02:01:35;;;;;;;7.18;6.57;;;9.60;1.00;;;;;;5001142;28;20333;-78
2021/05/24 02:04:02;;;;;;;7.57;6.97;;;9.60;1.00;;;;;;5000759;28;20230;-79
2021/05/24 02:06:28;;;;;;;7.60;6.90;;;9.50;1.00;;;;;;5003971;28;20255;-77
2021/05/24 02:08:55;;;;;;;7.38;6.75;;;9.50;1.00;;;;;;5005166;28;20220;-77
2021/05/24 02:11:21;;;;;;;7.05;6.40;;;9.50;1.00;;;;;;5001835;28;20233;-78
2021/05/24 02:13:51;;;;;;;6.22;5.72;;;9.50;1.00;;;;;;5006252;28;20692;-78
2021/05/24 02:16:21;;;;;;;6.97;6.38;;;9.40;1.00;;;;;;5003794;28;21163;-77
2021/05/24 02:18:47;;;;;;;6.90;6.30;;;9.40;1.00;;;;;;5005739;28;20224;-77
2021/05/24 02:21:13;;;;;;;6.40;5.90;;;9.40;1.00;;;;;;5005105;28;20211;-77
2021/05/24 02:23:39;;;;;;;7.25;6.47;;;9.40;1.00;;;;;;5005956;28;20448;-76
2021/05/24 02:26:06;;;;;;;7.55;6.85;;;9.40;1.00;;;;;;5002346;28;20292;-77
2021/05/24 02:28:32;;;;;;;7.45;6.75;;;9.40;1.00;;;;;;5000002;28;20222;-77
2021/05/24 02:30:59;;;;;;;6.85;6.30;;;9.40;1.00;;;;;;5001944;28;20216;-77
2021/05/24 02:33:25;;;;;;;6.28;5.78;;;9.40;1.00;;;;;;5005340;28;20219;-79
2021/05/24 02:35:51;;;;;;;6.72;6.13;;;9.40;1.00;;;;;;5004160;28;20235;-78
2021/05/24 02:38:17;;;;;;;6.40;5.90;;;9.30;1.00;;;;;;5001374;28;20225;-78
2021/05/24 02:40:43;;;;;;;7.32;6.72;;;9.30;1.00;;;;;;5003593;28;20993;-77
2021/05/24 02:43:09;;;;;;;6.88;6.28;;;9.30;1.00;;;;;;5000361;28;20233;-76
2021/05/24 02:45:36;;;;;;;6.00;5.50;;;9.20;1.00;;;;;;5004257;28;21010;-77
2021/05/24 02:48:05;;;;;;;6.50;6.00;;;9.20;1.00;;;;;;4988435;28;20226;-76
2021/05/24 02:50:31;;;;;;;6.97;6.38;;;9.20;1.00;;;;;;5002352;28;20255;-77
2021/05/24 02:52:57;;;;;;;7.57;6.30;;;9.20;1.00;;;;;;5005129;28;21163;-78
2021/05/24 02:55:23;;;;;;;7.30;6.50;;;9.20;1.00;;;;;;5005668;28;21009;-77
2021/05/24 02:57:49;;;;;;;6.38;5.88;;;9.20;1.00;;;;;;5000543;28;22374;-78
2021/05/24 03:00:16;;;;;;;5.95;5.30;;;9.10;1.00;;;;;;5002493;28;20235;-78
2021/05/24 03:02:46;;;;;;;6.57;6.05;;;9.10;1.00;;;;;;5003996;28;20218;-79
2021/05/24 03:05:15;;;;;;;6.55;5.80;;;9.10;1.00;;;;;;5001312;28;20215;-77
2021/05/24 03:07:41;;;;;;;6.85;6.25;;;9.10;1.00;;;;;;5001805;28;20288;-77
2021/05/24 03:10:08;;;;;;;6.78;6.18;;;9.10;1.00;;;;;;5000334;28;20225;-78
2021/05/24 03:12:35;;;;;;;6.88;6.38;;;9.00;1.00;;;;;;5003437;28;20231;-77
2021/05/24 03:15:01;;;;;;;6.28;5.78;;;9.00;1.00;;;;;;5002271;28;20224;-76
2021/05/24 03:17:27;;;;;;;6.18;5.55;;;9.00;1.00;;;;;;5006532;28;20302;-78
2021/05/24 03:19:53;;;;;;;6.65;6.05;;;9.00;1.00;;;;;;5001110;28;20302;-77
2021/05/24 03:22:20;;;;;;;7.05;6.35;;;9.00;1.00;;;;;;5003579;28;20231;-77
2021/05/24 03:24:46;;;;;;;6.30;5.70;;;9.00;1.00;;;;;;5001861;28;20231;-77
2021/05/24 03:27:12;;;;;;;7.82;7.03;;;9.00;1.00;;;;;;5003487;28;20233;-77
2021/05/24 03:29:39;;;;;;;6.70;6.18;;;9.00;1.00;;;;;;5005596;28;20233;-79
2021/05/24 03:32:05;;;;;;;7.05;6.32;;;9.10;1.00;;;;;;5005450;28;20327;-79
2021/05/24 03:34:31;;;;;;;6.57;6.07;;;9.10;1.00;;;;;;5000709;28;20330;-79
2021/05/24 03:36:58;;;;;;;7.05;6.28;;;9.10;1.00;;;;;;5003856;28;20270;-78
2021/05/24 03:39:25;;;;;;;6.80;6.20;;;9.00;1.00;;;;;;5000286;28;20215;-78
2021/05/24 03:41:51;;;;;;;7.35;6.65;;;9.10;1.00;;;;;;5000910;28;20255;-78
2021/05/24 03:44:17;;;;;;;6.85;6.25;;;9.00;1.00;;;;;;5001099;28;20329;-77
2021/05/24 03:46:43;;;;;;;6.95;6.35;;;9.10;1.00;;;;;;5004386;28;20373;-75
2021/05/24 03:49:09;;;;;;;7.03;6.43;;;9.10;1.00;;;;;;5007878;28;20235;-78
2021/05/24 03:51:36;;;;;;;8.85;6.20;;;9.10;1.00;;;;;;5003642;28;20227;-78
2021/05/24 03:54:02;;;;;;;6.90;6.20;;;9.10;1.00;;;;;;5006741;28;20220;-79
2021/05/24 03:56:29;;;;;;;6.60;6.00;;;9.20;1.00;;;;;;5005598;28;20294;-76
2021/05/24 03:58:55;;;;;;;6.95;6.30;;;9.10;1.00;;;;;;5008466;28;20227;-76
2021/05/24 04:01:21;;;;;;;11.27;6.57;;;9.10;1.00;;;;;;5006305;28;20228;-76
2021/05/24 04:03:50;;;;;;;6.80;6.20;;;9.10;1.00;;;;;;5008544;28;20262;-79
2021/05/24 04:06:17;;;;;;;6.55;6.05;;;9.10;1.00;;;;;;5004174;28;20226;-77
2021/05/24 04:08:44;;;;;;;7.28;6.57;;;9.10;1.00;;;;;;5008222;28;20235;-77
2021/05/24 04:11:11;;;;;;;6.10;5.50;;;9.10;1.00;;;;;;5000822;28;22025;-77
2021/05/24 04:13:40;;;;;;;7.10;6.50;;;9.10;1.00;;;;;;5003730;28;20219;-77
2021/05/24 04:16:06;;;;;;;6.88;6.05;;;9.20;1.00;;;;;;5000349;28;20249;-77
2021/05/24 04:18:34;;;;;;;6.57;6.07;;;9.10;1.00;;;;;;5001760;28;20231;-77
2021/05/24 04:21:02;;;;;;;6.70;6.10;;;9.20;1.00;;;;;;5003877;28;21065;-78
2021/05/24 04:23:29;;;;;;;8.50;6.60;;;9.20;1.00;;;;;;4998984;28;20223;-78
2021/05/24 04:25:55;;;;;;;7.25;6.65;;;9.30;1.00;;;;;;4997515;28;20247;-78
2021/05/24 04:28:21;;;;;;;6.40;5.90;;;9.30;1.00;;;;;;4983419;28;20242;-77
2021/05/24 04:30:49;;;;;;;7.47;6.82;;;9.40;1.00;;;;;;4985714;28;20222;-77
2021/05/24 04:33:15;;;;;;;7.25;6.65;;;9.40;1.00;;;;;;5000633;28;20232;-77
2021/05/24 04:35:41;;;;;;;6.68;6.05;;;9.40;1.00;;;;;;5001165;28;21034;-77
2021/05/24 04:38:07;;;;;;;6.68;6.00;;;9.40;1.00;;;;;;4982847;28;20254;-77
2021/05/24 04:40:33;;;;;;;6.65;6.15;;;9.50;1.00;;;;;;5001517;28;20226;-77
2021/05/24 04:43:00;;;;;;;6.90;6.35;;;9.50;1.00;;;;;;4996240;28;20223;-77
2021/05/24 04:45:26;;;;;;;6.65;6.15;;;9.60;1.00;;;;;;5003098;28;20227;-78
2021/05/24 04:47:53;;;;;;;7.05;6.45;;;9.60;1.00;;;;;;4999458;28;20232;-78
2021/05/24 04:50:19;;;;;;;6.22;5.63;;;9.60;1.00;;;;;;5002089;28;20286;-78
2021/05/24 04:52:46;;;;;;;7.28;6.55;;;9.70;1.00;;;;;;5002228;28;20226;-79
2021/05/24 04:55:13;;;;;;;6.33;5.63;;;9.70;1.00;;;;;;4999065;28;21241;-77
2021/05/24 04:57:40;;;;;;;5.88;5.35;;;9.80;1.00;;;;;;4997515;28;20909;-77
2021/05/24 05:00:09;;;;;;;6.28;5.68;;;9.80;1.00;;;;;;5002340;28;20221;-77
2021/05/24 05:02:35;;;;;;;6.03;5.53;;;9.90;1.00;;;;;;5037006;23;20247;-78
2021/05/24 05:05:03;;;;;;;6.15;5.55;;;10.00;1.00;;;;;;5022257;28;20230;-79
2021/05/24 05:07:31;;;;;;;5.95;5.45;;;10.10;1.00;;;;;;5025360;28;20211;-80
2021/05/24 05:09:57;;;;;;;6.55;5.95;;;10.10;1.00;;;;;;5007832;28;20243;-78
2021/05/24 05:12:24;;;;;;;6.50;5.88;;;10.30;1.00;;;;;;5032334;28;20304;-78
2021/05/24 05:14:50;;;;;;;5.40;4.90;;;10.40;1.00;;;;;;5023559;28;20227;-79
2021/05/24 05:17:16;;;;;;;5.78;5.28;;;10.50;1.00;;;;;;5038662;28;20225;-80
2021/05/24 05:24:01;;;;;;;5.10;4.68;;;10.70;1.00;;;;;;5051901;28;20220;-78
2021/05/24 05:26:39;;;;;;;4.30;4.00;;;10.90;1.00;;;;;;5051925;28;20222;-80
2021/05/24 05:29:16;;;;;;;5.30;4.80;;;11.00;1.00;;;;;;5028711;28;20424;-80
2021/05/24 05:31:48;;;;;;;4.70;4.20;;;11.20;1.00;;;;;;5041972;28;20260;-79
2021/05/24 05:34:18;;;;;;;4.55;3.83;;;11.30;1.00;;;;;;5021072;28;20504;-80
2021/05/24 05:36:44;;;;;;;3.70;3.43;;;11.50;1.00;;;;;;5022457;28;20284;-80
2021/05/24 05:39:11;;;;;;;3.80;3.50;;;11.60;1.00;;;;;;5023974;28;20511;-80
2021/05/24 05:41:38;;;;;;;3.10;2.80;;;11.80;1.00;;;;;;5023958;28;20530;-81
2021/05/24 05:44:05;;;;;;;3.17;2.90;;;11.90;1.00;;;;;;5008286;28;20466;-80
2021/05/24 05:46:31;;;;;;;3.60;2.80;;;12.10;1.00;;;;;;5019872;28;20449;-79
2021/05/24 05:48:58;;;;;;;3.03;2.83;;;12.30;1.00;;;;;;5024668;28;20540;-80
2021/05/24 05:51:40;;;;;;;2.87;2.67;;;12.40;1.00;;;;;;5027875;28;20513;-80
2021/05/24 05:54:10;;;;;;;4.90;2.93;;;12.50;1.00;;;;;;5038150;28;20421;-78
2021/05/24 05:56:45;;;;;;;3.00;2.70;;;12.60;1.00;;;;;;5025300;28;20434;-80
2021/05/24 05:59:11;;;;;;;3.00;2.60;;;12.70;1.00;;;;;;5014342;28;20436;-79
2021/05/24 06:01:38;;;;;;;3.60;3.10;;;12.80;1.00;;;;;;5012022;28;21267;-78
2021/05/24 06:04:06;;;;;;;3.23;2.93;;;12.90;1.00;;;;;;5014646;28;20468;-78
2021/05/24 06:06:32;;;;;;;2.63;2.43;;;13.10;1.00;;;;;;5024330;28;20521;-79
2021/05/24 06:08:58;;;;;;;3.20;2.80;;;13.20;1.00;;;;;;5031957;28;20879;-79
2021/05/24 06:11:26;;;;;;;3.30;2.80;;;13.30;1.00;;;;;;5024902;28;20450;-80
2021/05/24 06:13:53;;;;;;;3.20;2.90;;;13.30;1.00;;;;;;5014625;28;20490;-79
2021/05/24 06:16:19;;;;;;;2.97;2.53;;;13.30;1.00;;;;;;5024053;28;21859;-79
2021/05/24 06:18:45;;;;;;;2.90;2.30;;;13.40;1.00;;;;;;5008557;28;20572;-77
2021/05/24 06:21:12;;;;;;;3.97;2.30;;;13.40;1.00;;;;;;5027857;28;20431;-80
2021/05/24 06:23:38;;;;;;;2.77;2.57;;;13.50;1.00;;;;;;5010683;28;20469;-78
2021/05/24 06:26:04;;;;;;;2.60;2.40;;;13.70;1.00;;;;;;4992032;28;20466;-79
2021/05/24 06:28:31;;;;;;;3.30;2.50;;;13.80;1.00;;;;;;5016753;28;20485;-79
2021/05/24 06:30:58;;;;;;;2.30;2.10;;;13.80;1.00;;;;;;5016141;28;20473;-78
2021/05/24 06:33:24;;;;;;;3.60;2.37;;;14.00;1.00;;;;;;5010739;28;20444;-78
2021/05/24 06:35:50;;;;;;;2.13;2.03;;;14.10;1.00;;;;;;5012896;28;20431;-77
2021/05/24 06:38:16;;;;;;;3.60;2.40;;;14.20;1.00;;;;;;5009500;28;20465;-79
2021/05/24 06:40:43;;;;;;;3.73;2.63;;;14.30;1.00;;;;;;5014419;28;20437;-79
2021/05/24 06:43:09;;;;;;;2.93;2.63;;;14.40;1.00;;;;;;5010381;28;20474;-79
2021/05/24 06:45:35;;;;;;;2.30;2.10;;;14.40;1.00;;;;;;5008107;28;21189;-79
2021/05/24 06:48:03;;;;;;;3.20;2.90;;;14.50;1.00;;;;;;5008962;28;20465;-79
2021/05/24 06:50:29;;;;;;;2.50;2.20;;;14.60;1.00;;;;;;4994990;28;20488;-78
2021/05/24 06:52:55;;;;;;;2.80;2.60;;;14.60;1.00;;;;;;5011138;28;20453;-79
2021/05/24 06:55:21;;;;;;;3.73;2.17;;;14.60;1.00;;;;;;5009172;28;20399;-77
2021/05/24 06:57:48;;;;;;;2.50;2.07;;;14.60;1.00;;;;;;4991111;28;20464;-79
2021/05/24 07:00:15;;;;;;;3.00;2.50;;;14.70;1.00;;;;;;5020182;28;20492;-80
2021/05/24 07:02:47;;;;;;;2.37;2.17;;;14.80;1.00;;;;;;5002213;28;20457;-81
2021/05/24 07:05:15;;;;;;;2.40;2.20;;;14.90;1.00;;;;;;5009831;28;20517;-80
2021/05/24 07:07:41;;;;;;;2.53;2.20;;;14.90;1.00;;;;;;5010286;28;21629;-79
2021/05/24 07:10:08;;;;;;;3.00;2.70;;;14.90;1.00;;;;;;5010542;28;20469;-80
2021/05/24 07:12:35;;;;;;;2.50;2.30;;;15.00;1.00;;;;;;5000131;28;20509;-79
2021/05/24 07:15:03;;;;;;;2.50;2.30;;;15.00;1.00;;;;;;5000003;28;21200;-80
2021/05/24 07:17:30;;;;;;;2.23;2.00;;;15.10;1.00;;;;;;5016751;28;20936;-80
2021/05/24 07:19:56;;;;;;;1.70;1.60;;;15.20;1.00;;;;;;4990885;28;20472;-81
2021/05/24 07:22:24;;;;;;;3.30;2.17;;;15.30;1.00;;;;;;5012012;28;20455;-78
2021/05/24 07:24:53;;;;;;;2.23;2.00;;;15.40;1.00;;;;;;5012971;28;20410;-80
2021/05/24 07:27:19;;;;;;;3.30;2.10;;;15.60;1.00;;;;;;5011778;28;21260;-79
2021/05/24 07:29:45;;;;;;;3.10;1.80;;;15.70;1.00;;;;;;5022240;28;21037;-80
2021/05/24 07:32:12;;;;;;;4.23;1.83;;;15.90;1.00;;;;;;5037222;28;20417;-79
2021/05/24 07:34:39;;;;;;;2.63;2.00;;;16.00;1.00;;;;;;5031169;28;20477;-79
2021/05/24 07:37:05;;;;;;;2.33;2.10;;;16.20;1.00;;;;;;5016172;28;20474;-79
2021/05/24 07:39:33;;;;;;;1.83;1.60;;;16.20;1.00;;;;;;5008341;28;20445;-78
2021/05/24 07:42:01;;;;;;;2.20;1.90;;;16.30;1.00;;;;;;5030329;28;20484;-76
2021/05/24 07:44:28;;;;;;;1.73;1.63;;;16.30;1.00;;;;;;5003856;28;21307;-79
2021/05/24 07:46:54;;;;;;;2.20;1.60;;;16.50;1.00;;;;;;5007412;28;20529;-79
2021/05/24 07:49:23;;;;;;;3.37;1.80;;;16.50;1.00;;;;;;5008887;28;20539;-79
2021/05/24 07:51:50;;;;;;;2.40;2.10;;;16.60;1.00;;;;;;5004639;28;20450;-79
2021/05/24 07:54:16;;;;;;;1.83;1.73;;;16.70;1.00;;;;;;5007619;28;21151;-76
2021/05/24 07:56:44;;;;;;;1.50;1.40;;;16.90;1.00;;;;;;4992088;28;20514;-78
2021/05/24 07:59:10;;;;;;;2.33;1.50;;;17.00;1.00;;;;;;5007534;28;20445;-78
2021/05/24 08:01:36;;;;;;;1.40;1.30;;;17.10;1.00;;;;;;5007153;28;20450;-77
2021/05/24 08:04:03;;;;;;;1.40;1.30;;;17.30;1.00;;;;;;5018200;28;20448;-80
2021/05/24 08:06:30;;;;;;;3.80;1.40;;;17.50;1.00;;;;;;5011176;28;21301;-78
2021/05/24 08:08:56;;;;;;;1.93;1.57;;;17.60;1.00;;;;;;5015320;28;20529;-78
2021/05/24 08:11:24;;;;;;;1.87;1.50;;;17.60;1.00;;;;;;5005797;28;20416;-80
2021/05/24 08:13:53;;;;;;;1.83;1.40;;;17.60;1.00;;;;;;5013054;28;20436;-78
2021/05/24 08:16:19;;;;;;;1.47;1.30;;;17.80;1.00;;;;;;5014858;28;20529;-79
2021/05/24 08:18:45;;;;;;;2.10;1.23;;;18.00;1.00;;;;;;5032472;28;20512;-78
2021/05/24 08:21:12;;;;;;;6.40;1.30;;;18.20;1.00;;;;;;5032147;28;20416;-78
2021/05/24 08:23:39;;;;;;;3.40;1.80;;;18.30;1.00;;;;;;5043242;28;20446;-77
2021/05/24 08:26:05;;;;;;;3.93;1.43;;;18.20;1.00;;;;;;5044055;28;20569;-79
2021/05/24 08:28:31;;;;;;;2.20;1.10;;;18.20;1.00;;;;;;5042923;28;20444;-77
2021/05/24 08:30:59;;;;;;;1.20;1.10;;;18.20;1.00;;;;;;5035756;28;20416;-78
2021/05/24 08:33:26;;;;;;;1.10;1.00;;;18.30;1.00;;;;;;5043380;28;20428;-78
2021/05/24 08:35:57;;;;;;;3.73;1.50;;;18.40;1.00;;;;;;5031995;28;20423;-82
2021/05/24 08:38:30;;;;;;;1.90;1.00;;;18.50;1.00;;;;;;5029420;28;20436;-80
2021/05/24 08:40:58;;;;;;;2.50;1.10;;;18.60;1.00;;;;;;5045228;28;20425;-78
2021/05/24 08:43:24;;;;;;;2.40;1.23;;;18.60;1.00;;;;;;5037974;28;20425;-79
2021/05/24 08:45:51;;;;;;;1.17;0.80;;;18.70;1.00;;;;;;5037502;28;20409;-78
2021/05/24 08:48:18;;;;;;;1.20;1.10;;;18.90;1.00;;;;;;5039673;28;20460;-79
2021/05/24 08:50:48;;;;;;;2.93;1.40;;;18.70;1.00;;;;;;5033736;28;21455;-78
2021/05/24 08:53:14;;;;;;;1.90;1.13;;;18.70;1.00;;;;;;5033942;28;21997;-80
2021/05/24 08:55:41;;;;;;;1.40;0.90;;;18.60;1.00;;;;;;5017814;28;20429;-78
2021/05/24 08:58:09;;;;;;;1.70;0.87;;;18.80;1.00;;;;;;5023875;28;20626;-77
2021/05/24 09:00:36;;;;;;;2.10;0.90;;;19.00;1.00;;;;;;5030712;28;20410;-80
2021/05/24 09:03:02;;;;;;;1.10;0.90;;;19.10;1.00;;;;;;5030109;28;20440;-79
2021/05/24 09:05:31;;;;;;;1.23;0.80;;;19.10;1.00;;;;;;5033004;28;20457;-81
2021/05/24 09:07:59;;;;;;;2.50;1.00;;;19.10;1.00;;;;;;5013457;28;20431;-82
2021/05/24 09:10:28;;;;;;;1.90;0.73;;;19.00;1.00;;;;;;5044644;28;20433;-81
2021/05/24 09:12:55;;;;;;;1.17;1.00;;;19.10;1.00;;;;;;5022569;28;20450;-81
2021/05/24 09:15:24;;;;;;;2.00;1.10;;;19.10;1.00;;;;;;5026187;28;22404;-83
2021/05/24 09:17:53;;;;;;;1.60;1.13;;;19.10;1.00;;;;;;5034522;28;20473;-79
2021/05/24 09:20:34;;;;;;;1.50;1.20;;;19.10;1.00;;;;;;5033907;28;20448;-81
2021/05/24 09:23:13;;;;;;;2.10;1.10;;;19.30;1.00;;;;;;5020851;28;20468;-81
2021/05/24 09:25:54;;;;;;;1.67;0.90;;;19.50;1.00;;;;;;5037709;28;20440;-81
2021/05/24 09:28:44;;;;;;;3.73;1.10;;;19.40;1.00;;;;;;5036833;28;20520;-80
2021/05/24 09:31:14;;;;;;;1.70;1.37;;;19.40;1.00;;;;;;5047123;28;20406;-79
2021/05/24 09:33:43;;;;;;;1.10;0.70;;;19.60;1.00;;;;;;5016639;28;20465;-80
2021/05/24 09:36:10;;;;;;;1.03;0.90;;;19.90;1.00;;;;;;5027424;28;20401;-79
2021/05/24 09:38:42;;;;;;;3.00;0.63;;;20.60;1.00;;;;;;5026333;28;20430;-80
2021/05/24 09:41:10;;;;;;;1.80;0.90;;;21.40;1.00;;;;;;5028805;28;20410;-80
2021/05/24 09:43:39;;;;;;;2.47;1.03;;;21.80;1.00;;;;;;5024471;28;20461;-81
2021/05/24 09:46:17;;;;;;;1.27;0.90;;;21.70;1.00;;;;;;5025323;28;20448;-82
2021/05/24 09:48:45;;;;;;;1.40;1.23;;;21.50;1.00;;;;;;5031481;28;20504;-81
2021/05/24 09:51:15;;;;;;;0.97;0.77;;;21.10;1.00;;;;;;5033973;28;20447;-81
2021/05/24 09:53:53;;;;;;;1.33;0.93;;;20.80;1.00;;;;;;5032837;28;21208;-81
2021/05/24 09:56:20;;;;;;;0.97;0.87;;;20.80;1.00;;;;;;5025512;28;20488;-80
2021/05/24 09:58:57;;;;;;;1.17;0.90;;;20.90;1.00;;;;;;5026955;28;20473;-80
2021/05/24 10:01:30;;;;;;;2.00;0.90;;;21.20;1.00;;;;;;5022065;28;20500;-79
2021/05/24 10:03:57;;;;;;;1.00;0.83;;;21.80;1.00;;;;;;5028662;28;21237;-81
2021/05/24 10:06:25;;;;;;;2.30;1.07;;;22.50;1.00;;;;;;5020334;28;20567;-79
2021/05/24 10:08:54;;;;;;;0.70;0.70;;;23.60;1.00;;;;;;5027492;28;20453;-81
2021/05/24 10:11:20;;;;;;;1.10;0.80;;;24.50;1.00;;;;;;5022402;28;20442;-80
2021/05/24 10:13:47;;;;;;;0.87;0.80;;;24.90;1.00;;;;;;5024099;28;20453;-81
2021/05/24 10:16:14;;;;;;;1.23;0.70;;;25.10;1.00;;;;;;5019128;28;20473;-81
2021/05/24 10:18:41;;;;;;;2.10;0.90;;;25.30;1.00;;;;;;5019235;28;21116;-80
2021/05/24 10:21:08;;;;;;;1.30;1.10;;;24.20;1.00;;;;;;5004171;28;21270;-80
2021/05/24 10:23:35;;;;;;;0.97;0.87;;;24.00;1.00;;;;;;5022162;28;20469;-82
2021/05/24 10:26:03;;;;;;;2.53;2.33;;;23.80;1.00;;;;;;5022463;28;20440;-81
2021/05/24 10:28:32;;;;;;;1.73;0.80;;;24.50;1.00;;;;;;5025643;28;20519;-80
2021/05/24 10:31:00;;;;;;;1.30;0.90;;;25.10;1.00;;;;;;5036560;28;20454;-81
2021/05/24 10:33:39;;;;;;;1.20;1.00;;;26.30;1.00;;;;;;5036511;28;20439;-81
2021/05/24 10:36:17;;;;;;;1.70;0.80;;;26.20;1.00;;;;;;5021431;28;20419;-82
2021/05/24 10:38:47;;;;;;;1.40;0.70;;;25.20;1.00;;;;;;5006859;28;20482;-80
2021/05/24 10:41:16;;;;;;;1.23;0.70;;;24.00;1.00;;;;;;5017060;28;21034;-83
2021/05/24 10:43:45;;;;;;;1.77;0.70;;;23.60;1.00;;;;;;5024460;28;20476;-79
2021/05/24 10:46:35;;;;;;;2.73;1.03;;;23.50;1.00;;;;;;5018822;28;22529;-82
2021/05/24 10:49:05;;;;;;;1.10;0.90;;;23.90;1.00;;;;;;5036052;28;20419;-81
2021/05/24 10:52:04;;;;;;;1.00;0.90;;;24.40;1.00;;;;;;5025419;28;20415;-81
2021/05/24 10:54:41;;;;;;;2.40;0.70;;;24.90;1.00;;;;;;5024462;28;20703;-80
2021/05/24 10:57:14;;;;;;;1.27;0.87;;;25.40;1.00;;;;;;5017544;28;20498;-80
2021/05/24 10:59:49;;;;;;;1.67;0.60;;;25.10;1.00;;;;;;5023161;28;20623;-80
2021/05/24 11:02:24;;;;;;;1.30;0.93;;;24.70;1.00;;;;;;5021951;28;20987;-79
2021/05/24 11:04:54;;;;;;;3.33;1.80;;;25.40;1.00;;;;;;5021912;28;20837;-80
2021/05/24 11:07:34;;;;;;;0.80;0.80;;;26.10;1.00;;;;;;5019667;28;20458;-80
2021/05/24 11:10:38;;;;;;;1.70;0.70;;;26.70;1.00;;;;;;5019937;28;20417;-81
2021/05/24 11:13:26;;;;;;;0.93;0.63;;;27.90;1.00;;;;;;5016624;28;20503;-82
2021/05/24 11:15:54;;;;;;;3.37;1.00;;;29.40;1.00;;;;;;5017653;28;21082;-81
2021/05/24 11:18:27;;;;;;;1.07;0.73;;;29.40;1.00;;;;;;5015838;28;21011;-81
2021/05/24 11:21:14;;;;;;;1.83;0.97;;;29.60;1.00;;;;;;5014941;28;20496;-82
2021/05/24 11:24:00;;;;;;;1.93;0.90;;;30.20;1.00;;;;;;5017677;28;20443;-81
2021/05/24 11:26:29;;;;;;;0.97;0.87;;;28.10;1.00;;;;;;5020000;28;20425;-79
2021/05/24 11:28:59;;;;;;;0.80;0.60;;;26.40;1.00;;;;;;5023963;28;20470;-79
2021/05/24 11:31:30;;;;;;;3.03;1.20;;;26.60;1.00;;;;;;5033200;28;20429;-81
2021/05/24 11:33:58;;;;;;;1.80;1.27;;;27.40;1.00;;;;;;5024606;28;20427;-79
2021/05/24 11:36:50;;;;;;;1.93;1.10;;;27.00;1.00;;;;;;5021536;28;20530;-81
2021/05/24 11:39:20;;;;;;;1.63;1.00;;;27.00;1.00;;;;;;5018639;28;20419;-81
2021/05/24 11:41:52;;;;;;;4.10;1.00;;;28.00;1.00;;;;;;5021441;28;20430;-81
2021/05/24 11:44:20;;;;;;;2.63;1.70;;;27.60;1.00;;;;;;5018908;28;20448;-80
2021/05/24 11:46:48;;;;;;;1.90;0.90;;;28.60;1.00;;;;;;5027151;22;20492;-77
2021/05/24 11:49:16;;;;;;;1.47;0.77;;;30.20;1.00;;;;;;5016406;28;20417;-77
2021/05/24 11:51:44;;;;;;;1.80;1.00;;;31.10;1.00;;;;;;5014804;28;20440;-77
2021/05/24 11:54:13;;;;;;;1.20;0.60;;;29.80;1.00;;;;;;5009193;28;20476;-78
2021/05/24 11:56:42;;;;;;;1.70;1.50;;;30.10;1.00;;;;;;5008990;28;20956;-77
2021/05/24 11:59:11;;;;;;;1.67;0.90;;;30.60;1.00;;;;;;5010714;28;22741;-79
2021/05/24 12:01:40;;;;;;;0.70;0.70;;;30.50;1.00;;;;;;5012891;28;20496;-79
2021/05/24 12:04:11;;;;;;;1.13;0.70;;;30.00;1.00;;;;;;5008955;28;20494;-78
2021/05/24 12:06:44;;;;;;;2.17;0.80;;;28.90;1.00;;;;;;5015859;28;20471;-79
2021/05/24 12:09:10;;;;;;;1.30;0.90;;;29.20;1.00;;;;;;5015499;28;20441;-80
2021/05/24 12:11:51;;;;;;;0.80;0.63;;;30.50;1.00;;;;;;5016199;28;20684;-79
2021/05/24 12:14:18;;;;;;;1.00;0.70;;;30.70;1.00;;;;;;5010796;28;20468;-78
2021/05/24 12:16:45;;;;;;;1.10;0.63;;;31.40;1.00;;;;;;5013795;28;20507;-78
2021/05/24 12:19:11;;;;;;;2.70;0.90;;;31.90;1.00;;;;;;5011814;28;20504;-80
2021/05/24 12:21:40;;;;;;;1.10;0.67;;;31.90;1.00;;;;;;5012436;28;20872;-78
2021/05/24 12:24:08;;;;;;;1.53;1.13;;;31.90;1.00;;;;;;5011647;28;21027;-78
2021/05/24 12:26:36;;;;;;;2.50;0.87;;;32.20;1.00;;;;;;5018936;28;20513;-76
2021/05/24 12:29:04;;;;;;;1.50;0.80;;;32.10;1.00;;;;;;5026258;28;20559;-80
2021/05/24 12:31:31;;;;;;;0.70;0.60;;;33.10;1.00;;;;;;5011431;28;20465;-79
2021/05/24 12:34:01;;;;;;;1.03;0.80;;;32.70;1.00;;;;;;5018211;28;20480;-77
2021/05/24 12:36:35;;;;;;;0.90;0.53;;;32.70;1.00;;;;;;5016983;28;20513;-79
2021/05/24 12:39:05;;;;;;;1.47;0.50;;;32.30;1.00;;;;;;5015911;28;20421;-78
2021/05/24 12:41:33;;;;;;;1.57;0.70;;;32.30;1.00;;;;;;5013018;28;20469;-80
2021/05/24 12:44:02;;;;;;;1.53;0.70;;;32.30;1.00;;;;;;5011142;28;20512;-79
2021/05/24 12:46:30;;;;;;;1.53;0.80;;;33.10;1.00;;;;;;4999599;28;20810;-77
2021/05/24 12:48:58;;;;;;;1.57;0.50;;;33.10;1.00;;;;;;5016375;28;20507;-79
2021/05/24 12:51:27;;;;;;;1.80;0.90;;;33.40;1.00;;;;;;5011430;28;21100;-79
2021/05/24 12:53:55;;;;;;;1.07;0.60;;;32.70;1.00;;;;;;4996715;28;21208;-78
2021/05/24 12:56:23;;;;;;;1.37;1.20;;;32.40;1.00;;;;;;5013461;28;20418;-77
2021/05/24 12:58:50;;;;;;;0.70;0.50;;;33.00;1.00;;;;;;5016758;28;21237;-79
2021/05/24 13:01:30;;;;;;;0.80;0.63;;;32.70;1.00;;;;;;5014029;28;20461;-80
2021/05/24 13:04:00;;;;;;;2.40;0.73;;;32.70;1.00;;;;;;5014644;28;20535;-79
2021/05/24 13:06:27;;;;;;;1.40;0.90;;;32.40;1.00;;;;;;4995109;28;20547;-79
2021/05/24 13:08:58;;;;;;;1.90;0.53;;;32.70;1.00;;;;;;5012377;28;20474;-79
2021/05/24 13:11:26;;;;;;;1.40;0.70;;;32.50;1.00;;;;;;5013280;28;20449;-80